sensor_id;sensor_type;location;lat;lon;timestamp;temperature;humidity
72202;SHT30;60105;54.956;73.412;2022-11-30T00:01:23;-17.74;60.38
72202;SHT30;60105;54.956;73.412;2022-11-30T00:03:54;-17.89;59.43
72202;SHT30;60105;54.956;73.412;2022-11-30T00:06:21;-18.00;59.76
72202;SHT30;60105;54.956;73.412;2022-11-30T00:08:52;-18.10;60.29
72202;SHT30;60105;54.956;73.412;2022-11-30T00:11:28;-18.08;60.38
72202;SHT30;60105;54.956;73.412;2022-11-30T00:13:55;-18.05;60.68
72202;SHT30;60105;54.956;73.412;2022-11-30T00:16:21;-18.14;59.89
72202;SHT30;60105;54.956;73.412;2022-11-30T00:18:47;-18.13;59.95
72202;SHT30;60105;54.956;73.412;2022-11-30T00:21:23;-18.07;60.52
72202;SHT30;60105;54.956;73.412;2022-11-30T00:23:49;-18.03;60.64
72202;SHT30;60105;54.956;73.412;2022-11-30T00:26:17;-17.97;60.14
72202;SHT30;60105;54.956;73.412;2022-11-30T00:28:44;-18.00;60.11
72202;SHT30;60105;54.956;73.412;2022-11-30T00:31:14;-18.04;59.73
72202;SHT30;60105;54.956;73.412;2022-11-30T00:33:40;-18.03;59.69
72202;SHT30;60105;54.956;73.412;2022-11-30T00:36:11;-18.07;59.59
72202;SHT30;60105;54.956;73.412;2022-11-30T00:38:44;-18.14;59.59
72202;SHT30;60105;54.956;73.412;2022-11-30T00:41:11;-18.10;59.70
72202;SHT30;60105;54.956;73.412;2022-11-30T00:43:43;-18.11;59.70
72202;SHT30;60105;54.956;73.412;2022-11-30T00:46:19;-18.22;60.29
72202;SHT30;60105;54.956;73.412;2022-11-30T00:48:45;-18.08;59.61
72202;SHT30;60105;54.956;73.412;2022-11-30T00:51:12;-18.20;59.09
72202;SHT30;60105;54.956;73.412;2022-11-30T00:53:39;-18.11;59.47
72202;SHT30;60105;54.956;73.412;2022-11-30T00:56:06;-18.10;59.24
72202;SHT30;60105;54.956;73.412;2022-11-30T00:58:33;-18.22;59.32
72202;SHT30;60105;54.956;73.412;2022-11-30T01:00:59;-18.36;59.38
72202;SHT30;60105;54.956;73.412;2022-11-30T01:03:26;-18.34;60.18
72202;SHT30;60105;54.956;73.412;2022-11-30T01:06:05;-18.22;59.99
72202;SHT30;60105;54.956;73.412;2022-11-30T01:08:32;-18.15;59.81
72202;SHT30;60105;54.956;73.412;2022-11-30T01:11:08;-18.49;59.66
72202;SHT30;60105;54.956;73.412;2022-11-30T01:13:36;-18.31;60.77
72202;SHT30;60105;54.956;73.412;2022-11-30T01:16:11;-18.24;60.41
72202;SHT30;60105;54.956;73.412;2022-11-30T01:18:38;-18.46;61.10
72202;SHT30;60105;54.956;73.412;2022-11-30T01:21:06;-18.42;62.30
72202;SHT30;60105;54.956;73.412;2022-11-30T01:23:32;-18.63;62.18
72202;SHT30;60105;54.956;73.412;2022-11-30T01:25:58;-18.81;63.61
72202;SHT30;60105;54.956;73.412;2022-11-30T01:28:24;-18.83;63.71
72202;SHT30;60105;54.956;73.412;2022-11-30T01:31:01;-18.66;63.63
72202;SHT30;60105;54.956;73.412;2022-11-30T01:33:28;-18.51;63.40
72202;SHT30;60105;54.956;73.412;2022-11-30T01:35:58;-18.52;62.80
72202;SHT30;60105;54.956;73.412;2022-11-30T01:38:26;-18.48;63.01
72202;SHT30;60105;54.956;73.412;2022-11-30T01:40:52;-18.46;62.59
72202;SHT30;60105;54.956;73.412;2022-11-30T01:43:19;-18.48;62.69
72202;SHT30;60105;54.956;73.412;2022-11-30T01:45:49;-18.46;62.49
72202;SHT30;60105;54.956;73.412;2022-11-30T01:48:16;-18.60;62.29
72202;SHT30;60105;54.956;73.412;2022-11-30T01:50:43;-18.67;62.46
72202;SHT30;60105;54.956;73.412;2022-11-30T01:53:09;-18.83;63.02
72202;SHT30;60105;54.956;73.412;2022-11-30T01:55:41;-18.76;63.54
72202;SHT30;60105;54.956;73.412;2022-11-30T01:58:23;-18.65;63.15
72202;SHT30;60105;54.956;73.412;2022-11-30T02:00:50;-18.65;62.35
72202;SHT30;60105;54.956;73.412;2022-11-30T02:03:33;-18.67;62.42
72202;SHT30;60105;54.956;73.412;2022-11-30T02:06:01;-18.69;62.77
72202;SHT30;60105;54.956;73.412;2022-11-30T02:08:29;-18.73;62.64
72202;SHT30;60105;54.956;73.412;2022-11-30T02:11:03;-18.81;63.03
72202;SHT30;60105;54.956;73.412;2022-11-30T02:29:52;-18.55;63.09
72202;SHT30;60105;54.956;73.412;2022-11-30T02:35:15;-18.56;61.81
72202;SHT30;60105;54.956;73.412;2022-11-30T02:37:42;-18.48;61.98
72202;SHT30;60105;54.956;73.412;2022-11-30T02:40:11;-18.59;62.27
72202;SHT30;60105;54.956;73.412;2022-11-30T02:42:38;-18.67;62.96
72202;SHT30;60105;54.956;73.412;2022-11-30T02:45:09;-18.45;62.86
72202;SHT30;60105;54.956;73.412;2022-11-30T02:47:40;-18.41;62.24
72202;SHT30;60105;54.956;73.412;2022-11-30T02:50:14;-18.57;61.98
72202;SHT30;60105;54.956;73.412;2022-11-30T02:52:42;-18.53;62.66
72202;SHT30;60105;54.956;73.412;2022-11-30T02:55:20;-18.69;61.93
72202;SHT30;60105;54.956;73.412;2022-11-30T02:57:51;-18.76;63.23
72202;SHT30;60105;54.956;73.412;2022-11-30T03:00:17;-18.63;63.23
72202;SHT30;60105;54.956;73.412;2022-11-30T03:02:44;-18.49;62.04
72202;SHT30;60105;54.956;73.412;2022-11-30T03:05:20;-18.59;62.36
72202;SHT30;60105;54.956;73.412;2022-11-30T03:07:46;-18.49;62.22
72202;SHT30;60105;54.956;73.412;2022-11-30T03:10:12;-18.46;61.48
72202;SHT30;60105;54.956;73.412;2022-11-30T03:12:38;-18.63;61.43
72202;SHT30;60105;54.956;73.412;2022-11-30T03:15:05;-18.77;62.01
72202;SHT30;60105;54.956;73.412;2022-11-30T03:17:41;-18.69;62.12
72202;SHT30;60105;54.956;73.412;2022-11-30T03:20:13;-18.44;62.05
72202;SHT30;60105;54.956;73.412;2022-11-30T03:22:40;-18.51;61.40
72202;SHT30;60105;54.956;73.412;2022-11-30T03:25:16;-18.70;61.71
72202;SHT30;60105;54.956;73.412;2022-11-30T03:27:43;-18.69;62.42
72202;SHT30;60105;54.956;73.412;2022-11-30T03:30:10;-18.65;63.49
72202;SHT30;60105;54.956;73.412;2022-11-30T03:32:41;-18.72;63.68
72202;SHT30;60105;54.956;73.412;2022-11-30T03:35:07;-18.69;63.64
72202;SHT30;60105;54.956;73.412;2022-11-30T03:37:34;-18.48;62.98
72202;SHT30;60105;54.956;73.412;2022-11-30T03:40:00;-18.22;62.18
72202;SHT30;60105;54.956;73.412;2022-11-30T03:42:26;-18.18;61.59
72202;SHT30;60105;54.956;73.412;2022-11-30T03:44:52;-18.26;61.18
72202;SHT30;60105;54.956;73.412;2022-11-30T03:47:18;-18.14;61.65
72202;SHT30;60105;54.956;73.412;2022-11-30T03:49:44;-18.03;61.35
72202;SHT30;60105;54.956;73.412;2022-11-30T03:52:10;-17.91;60.74
72202;SHT30;60105;54.956;73.412;2022-11-30T03:54:37;-18.00;60.77
72202;SHT30;60105;54.956;73.412;2022-11-30T03:57:03;-17.90;60.21
72202;SHT30;60105;54.956;73.412;2022-11-30T03:59:31;-17.94;60.04
72202;SHT30;60105;54.956;73.412;2022-11-30T04:01:57;-18.18;60.01
72202;SHT30;60105;54.956;73.412;2022-11-30T04:04:23;-18.18;60.96
72202;SHT30;60105;54.956;73.412;2022-11-30T04:06:49;-18.05;61.05
72202;SHT30;60105;54.956;73.412;2022-11-30T04:09:16;-18.38;60.78
72202;SHT30;60105;54.956;73.412;2022-11-30T04:11:47;-17.98;61.23
72202;SHT30;60105;54.956;73.412;2022-11-30T04:14:13;-17.62;59.68
72202;SHT30;60105;54.956;73.412;2022-11-30T04:16:39;-17.76;58.68
72202;SHT30;60105;54.956;73.412;2022-11-30T04:19:16;-17.63;59.04
72202;SHT30;60105;54.956;73.412;2022-11-30T04:21:42;-17.65;59.09
72202;SHT30;60105;54.956;73.412;2022-11-30T04:24:09;-17.46;59.58
72202;SHT30;60105;54.956;73.412;2022-11-30T04:26:35;-17.52;59.65
72202;SHT30;60105;54.956;73.412;2022-11-30T04:29:01;-17.58;59.69
72202;SHT30;60105;54.956;73.412;2022-11-30T04:31:27;-17.63;60.22
72202;SHT30;60105;54.956;73.412;2022-11-30T04:33:58;-17.53;59.85
72202;SHT30;60105;54.956;73.412;2022-11-30T04:36:24;-17.70;60.14
72202;SHT30;60105;54.956;73.412;2022-11-30T04:38:52;-17.53;59.92
72202;SHT30;60105;54.956;73.412;2022-11-30T04:41:23;-17.56;59.07
72202;SHT30;60105;54.956;73.412;2022-11-30T04:43:49;-17.49;59.51
72202;SHT30;60105;54.956;73.412;2022-11-30T04:46:18;-17.51;59.37
72202;SHT30;60105;54.956;73.412;2022-11-30T04:48:51;-17.31;59.53
72202;SHT30;60105;54.956;73.412;2022-11-30T04:51:17;-17.31;59.03
72202;SHT30;60105;54.956;73.412;2022-11-30T04:53:44;-17.20;58.59
72202;SHT30;60105;54.956;73.412;2022-11-30T04:56:10;-17.18;58.19
72202;SHT30;60105;54.956;73.412;2022-11-30T04:58:37;-17.24;57.71
72202;SHT30;60105;54.956;73.412;2022-11-30T05:01:08;-17.31;57.64
72202;SHT30;60105;54.956;73.412;2022-11-30T05:03:39;-17.25;58.48
72202;SHT30;60105;54.956;73.412;2022-11-30T05:06:05;-17.00;58.04
72202;SHT30;60105;54.956;73.412;2022-11-30T05:08:36;-16.89;57.30
72202;SHT30;60105;54.956;73.412;2022-11-30T05:11:10;-16.94;56.85
72202;SHT30;60105;54.956;73.412;2022-11-30T05:13:46;-16.96;56.93
72202;SHT30;60105;54.956;73.412;2022-11-30T05:16:15;-16.82;56.55
72202;SHT30;60105;54.956;73.412;2022-11-30T05:18:42;-16.90;56.38
72202;SHT30;60105;54.956;73.412;2022-11-30T05:21:08;-16.86;56.26
72202;SHT30;60105;54.956;73.412;2022-11-30T05:23:39;-16.89;56.67
72202;SHT30;60105;54.956;73.412;2022-11-30T05:26:11;-16.89;56.64
72202;SHT30;60105;54.956;73.412;2022-11-30T05:28:47;-16.89;56.34
72202;SHT30;60105;54.956;73.412;2022-11-30T05:31:13;-16.66;56.99
72202;SHT30;60105;54.956;73.412;2022-11-30T05:33:52;-16.55;55.77
72202;SHT30;60105;54.956;73.412;2022-11-30T05:36:19;-16.51;55.53
72202;SHT30;60105;54.956;73.412;2022-11-30T05:38:55;-16.48;55.08
72202;SHT30;60105;54.956;73.412;2022-11-30T05:41:21;-16.52;54.97
72202;SHT30;60105;54.956;73.412;2022-11-30T05:43:48;-16.57;55.42
72202;SHT30;60105;54.956;73.412;2022-11-30T05:46:14;-16.43;55.92
72202;SHT30;60105;54.956;73.412;2022-11-30T05:48:40;-16.20;54.79
72202;SHT30;60105;54.956;73.412;2022-11-30T05:51:16;-16.14;54.37
72202;SHT30;60105;54.956;73.412;2022-11-30T05:53:43;-16.38;54.40
72202;SHT30;60105;54.956;73.412;2022-11-30T05:56:12;-16.28;54.77
72202;SHT30;60105;54.956;73.412;2022-11-30T05:58:39;-16.11;54.71
72202;SHT30;60105;54.956;73.412;2022-11-30T06:01:05;-16.07;53.91
72202;SHT30;60105;54.956;73.412;2022-11-30T06:03:34;-16.10;53.68
72202;SHT30;60105;54.956;73.412;2022-11-30T06:06:05;-16.04;53.71
72202;SHT30;60105;54.956;73.412;2022-11-30T06:08:36;-15.87;53.71
72202;SHT30;60105;54.956;73.412;2022-11-30T06:11:03;-15.72;53.23
72202;SHT30;60105;54.956;73.412;2022-11-30T06:13:29;-15.62;52.37
72202;SHT30;60105;54.956;73.412;2022-11-30T06:15:58;-15.58;51.56
72202;SHT30;60105;54.956;73.412;2022-11-30T06:18:25;-15.52;51.85
72202;SHT30;60105;54.956;73.412;2022-11-30T06:20:51;-15.43;52.24
72202;SHT30;60105;54.956;73.412;2022-11-30T06:23:22;-15.34;50.64
72202;SHT30;60105;54.956;73.412;2022-11-30T06:25:49;-15.48;51.00
72202;SHT30;60105;54.956;73.412;2022-11-30T06:28:15;-15.32;51.11
72202;SHT30;60105;54.956;73.412;2022-11-30T06:30:41;-15.14;50.24
72202;SHT30;60105;54.956;73.412;2022-11-30T06:33:08;-15.38;49.65
72202;SHT30;60105;54.956;73.412;2022-11-30T06:35:45;-15.51;50.14
72202;SHT30;60105;54.956;73.412;2022-11-30T06:38:12;-15.32;50.84
72202;SHT30;60105;54.956;73.412;2022-11-30T06:40:38;-15.17;50.83
72202;SHT30;60105;54.956;73.412;2022-11-30T06:43:05;-14.82;51.02
72202;SHT30;60105;54.956;73.412;2022-11-30T06:45:42;-14.90;50.02
72202;SHT30;60105;54.956;73.412;2022-11-30T06:48:10;-14.56;49.71
72202;SHT30;60105;54.956;73.412;2022-11-30T06:50:37;-14.35;49.20
72202;SHT30;60105;54.956;73.412;2022-11-30T06:53:03;-14.42;49.10
72202;SHT30;60105;54.956;73.412;2022-11-30T06:55:30;-14.49;49.91
72202;SHT30;60105;54.956;73.412;2022-11-30T06:58:07;-14.51;50.06
72202;SHT30;60105;54.956;73.412;2022-11-30T07:00:34;-14.11;49.60
72202;SHT30;60105;54.956;73.412;2022-11-30T07:03:01;-14.37;48.66
72202;SHT30;60105;54.956;73.412;2022-11-30T07:05:28;-14.52;49.63
72202;SHT30;60105;54.956;73.412;2022-11-30T07:07:55;-14.41;49.45
72202;SHT30;60105;54.956;73.412;2022-11-30T07:10:21;-14.39;49.57
72202;SHT30;60105;54.956;73.412;2022-11-30T07:12:53;-14.34;49.67
72202;SHT30;60105;54.956;73.412;2022-11-30T07:15:19;-14.27;49.10
72202;SHT30;60105;54.956;73.412;2022-11-30T07:17:51;-14.37;48.95
72202;SHT30;60105;54.956;73.412;2022-11-30T07:20:17;-14.21;49.18
72202;SHT30;60105;54.956;73.412;2022-11-30T07:22:43;-14.13;48.77
72202;SHT30;60105;54.956;73.412;2022-11-30T07:25:14;-14.03;48.78
72202;SHT30;60105;54.956;73.412;2022-11-30T07:28:09;-14.04;49.48
72202;SHT30;60105;54.956;73.412;2022-11-30T07:30:35;-13.87;49.15
72202;SHT30;60105;54.956;73.412;2022-11-30T07:33:01;-13.79;48.52
72202;SHT30;60105;54.956;73.412;2022-11-30T07:35:27;-13.77;48.47
72202;SHT30;60105;54.956;73.412;2022-11-30T07:37:54;-13.72;49.07
72202;SHT30;60105;54.956;73.412;2022-11-30T07:40:20;-13.48;48.46
72202;SHT30;60105;54.956;73.412;2022-11-30T07:42:46;-13.41;47.32
72202;SHT30;60105;54.956;73.412;2022-11-30T07:45:12;-13.49;47.27
72202;SHT30;60105;54.956;73.412;2022-11-30T07:47:38;-13.32;47.50
72202;SHT30;60105;54.956;73.412;2022-11-30T07:50:05;-13.22;46.02
72202;SHT30;60105;54.956;73.412;2022-11-30T07:52:31;-13.38;46.17
72202;SHT30;60105;54.956;73.412;2022-11-30T07:54:57;-13.12;47.23
72202;SHT30;60105;54.956;73.412;2022-11-30T07:57:24;-13.03;46.72
72202;SHT30;60105;54.956;73.412;2022-11-30T07:59:54;-13.07;46.74
72202;SHT30;60105;54.956;73.412;2022-11-30T08:02:20;-13.28;45.55
72202;SHT30;60105;54.956;73.412;2022-11-30T08:04:47;-13.29;46.44
72202;SHT30;60105;54.956;73.412;2022-11-30T08:07:13;-13.18;45.92
72202;SHT30;60105;54.956;73.412;2022-11-30T08:09:39;-12.97;47.59
72202;SHT30;60105;54.956;73.412;2022-11-30T08:12:06;-12.93;45.91
72202;SHT30;60105;54.956;73.412;2022-11-30T08:14:32;-12.99;46.20
72202;SHT30;60105;54.956;73.412;2022-11-30T08:17:08;-13.25;46.68
72202;SHT30;60105;54.956;73.412;2022-11-30T08:19:34;-13.08;46.98
72202;SHT30;60105;54.956;73.412;2022-11-30T08:22:00;-13.06;46.78
72202;SHT30;60105;54.956;73.412;2022-11-30T08:24:27;-13.11;45.93
72202;SHT30;60105;54.956;73.412;2022-11-30T08:26:54;-13.20;46.49
72202;SHT30;60105;54.956;73.412;2022-11-30T08:29:20;-13.15;46.75
72202;SHT30;60105;54.956;73.412;2022-11-30T08:31:46;-12.87;46.97
72202;SHT30;60105;54.956;73.412;2022-11-30T08:34:12;-12.81;45.76
72202;SHT30;60105;54.956;73.412;2022-11-30T08:36:39;-12.90;45.95
72202;SHT30;60105;54.956;73.412;2022-11-30T08:39:07;-12.83;46.10
72202;SHT30;60105;54.956;73.412;2022-11-30T08:41:34;-12.81;45.90
72202;SHT30;60105;54.956;73.412;2022-11-30T08:44:01;-12.90;46.26
72202;SHT30;60105;54.956;73.412;2022-11-30T08:46:36;-12.90;46.58
72202;SHT30;60105;54.956;73.412;2022-11-30T08:49:03;-12.93;46.80
72202;SHT30;60105;54.956;73.412;2022-11-30T08:51:34;-13.10;45.93
72202;SHT30;60105;54.956;73.412;2022-11-30T08:54:00;-13.01;45.50
72202;SHT30;60105;54.956;73.412;2022-11-30T08:56:26;-12.96;45.13
72202;SHT30;60105;54.956;73.412;2022-11-30T08:58:53;-13.04;46.29
72202;SHT30;60105;54.956;73.412;2022-11-30T09:01:22;-12.81;44.80
72202;SHT30;60105;54.956;73.412;2022-11-30T09:03:50;-12.76;44.26
72202;SHT30;60105;54.956;73.412;2022-11-30T09:06:27;-12.60;43.37
72202;SHT30;60105;54.956;73.412;2022-11-30T09:08:56;-12.72;42.94
72202;SHT30;60105;54.956;73.412;2022-11-30T09:11:32;-12.77;43.53
72202;SHT30;60105;54.956;73.412;2022-11-30T09:14:00;-12.91;42.95
72202;SHT30;60105;54.956;73.412;2022-11-30T09:16:27;-13.00;43.31
72202;SHT30;60105;54.956;73.412;2022-11-30T09:18:53;-13.03;43.02
72202;SHT30;60105;54.956;73.412;2022-11-30T09:21:22;-13.07;43.91
72202;SHT30;60105;54.956;73.412;2022-11-30T09:23:49;-13.20;43.84
72202;SHT30;60105;54.956;73.412;2022-11-30T09:26:25;-13.14;44.18
72202;SHT30;60105;54.956;73.412;2022-11-30T09:28:52;-13.08;44.15
72202;SHT30;60105;54.956;73.412;2022-11-30T09:31:21;-13.08;43.85
72202;SHT30;60105;54.956;73.412;2022-11-30T09:33:47;-13.38;43.31
72202;SHT30;60105;54.956;73.412;2022-11-30T09:36:17;-13.49;45.31
72202;SHT30;60105;54.956;73.412;2022-11-30T09:38:44;-13.41;45.03
72202;SHT30;60105;54.956;73.412;2022-11-30T09:49:40;-13.38;45.40
72202;SHT30;60105;54.956;73.412;2022-11-30T09:52:15;-13.43;44.70
72202;SHT30;60105;54.956;73.412;2022-11-30T09:54:48;-13.43;44.65
72202;SHT30;60105;54.956;73.412;2022-11-30T10:00:14;-13.39;45.17
72202;SHT30;60105;54.956;73.412;2022-11-30T10:02:41;-13.49;45.07
72202;SHT30;60105;54.956;73.412;2022-11-30T10:05:19;-13.49;44.63
72202;SHT30;60105;54.956;73.412;2022-11-30T10:08:12;-13.56;44.70
72202;SHT30;60105;54.956;73.412;2022-11-30T10:10:39;-13.51;44.97
72202;SHT30;60105;54.956;73.412;2022-11-30T10:27:16;-14.16;47.04
72202;SHT30;60105;54.956;73.412;2022-11-30T10:29:43;-14.06;46.80
72202;SHT30;60105;54.956;73.412;2022-11-30T10:32:18;-14.22;46.69
72202;SHT30;60105;54.956;73.412;2022-11-30T10:35:12;-14.24;48.50
72202;SHT30;60105;54.956;73.412;2022-11-30T10:37:40;-14.13;48.41
72202;SHT30;60105;54.956;73.412;2022-11-30T10:43:35;-13.99;47.05
72202;SHT30;60105;54.956;73.412;2022-11-30T10:46:04;-14.17;47.19
72202;SHT30;60105;54.956;73.412;2022-11-30T10:48:33;-14.30;47.71
72202;SHT30;60105;54.956;73.412;2022-11-30T10:51:12;-14.65;48.13
72202;SHT30;60105;54.956;73.412;2022-11-30T10:53:38;-14.62;48.52
72202;SHT30;60105;54.956;73.412;2022-11-30T10:56:12;-14.69;48.56
72202;SHT30;60105;54.956;73.412;2022-11-30T10:58:49;-14.90;49.17
72202;SHT30;60105;54.956;73.412;2022-11-30T11:01:53;-14.99;49.76
72202;SHT30;60105;54.956;73.412;2022-11-30T11:04:25;-15.15;50.43
72202;SHT30;60105;54.956;73.412;2022-11-30T11:07:07;-14.91;50.75
72202;SHT30;60105;54.956;73.412;2022-11-30T11:09:47;-14.73;50.22
72202;SHT30;60105;54.956;73.412;2022-11-30T11:12:26;-14.61;49.01
72202;SHT30;60105;54.956;73.412;2022-11-30T11:15:18;-14.72;48.88
72202;SHT30;60105;54.956;73.412;2022-11-30T11:17:44;-14.72;49.61
72202;SHT30;60105;54.956;73.412;2022-11-30T11:20:34;-14.79;49.74
72202;SHT30;60105;54.956;73.412;2022-11-30T11:23:21;-15.01;49.26
72202;SHT30;60105;54.956;73.412;2022-11-30T11:25:50;-15.14;49.25
72202;SHT30;60105;54.956;73.412;2022-11-30T11:28:28;-15.38;50.92
72202;SHT30;60105;54.956;73.412;2022-11-30T11:30:55;-15.45;50.47
72202;SHT30;60105;54.956;73.412;2022-11-30T11:33:27;-15.34;50.74
72202;SHT30;60105;54.956;73.412;2022-11-30T11:36:12;-15.12;50.27
72202;SHT30;60105;54.956;73.412;2022-11-30T11:38:46;-15.11;49.48
72202;SHT30;60105;54.956;73.412;2022-11-30T11:41:20;-15.17;49.83
72202;SHT30;60105;54.956;73.412;2022-11-30T11:44:02;-15.18;50.80
72202;SHT30;60105;54.956;73.412;2022-11-30T11:46:30;-15.10;50.26
72202;SHT30;60105;54.956;73.412;2022-11-30T11:49:02;-15.21;49.59
72202;SHT30;60105;54.956;73.412;2022-11-30T11:51:31;-15.22;49.43
72202;SHT30;60105;54.956;73.412;2022-11-30T11:54:03;-15.20;50.14
72202;SHT30;60105;54.956;73.412;2022-11-30T11:56:34;-15.32;49.76
72202;SHT30;60105;54.956;73.412;2022-11-30T11:59:18;-15.51;51.49
72202;SHT30;60105;54.956;73.412;2022-11-30T12:02:02;-15.34;51.09
72202;SHT30;60105;54.956;73.412;2022-11-30T12:04:55;-15.62;50.68
72202;SHT30;60105;54.956;73.412;2022-11-30T12:10:24;-15.59;51.88
72202;SHT30;60105;54.956;73.412;2022-11-30T12:13:09;-15.90;51.62
72202;SHT30;60105;54.956;73.412;2022-11-30T12:15:59;-15.77;51.96
72202;SHT30;60105;54.956;73.412;2022-11-30T12:21:13;-15.80;51.47
72202;SHT30;60105;54.956;73.412;2022-11-30T12:29:19;-16.01;51.83
72202;SHT30;60105;54.956;73.412;2022-11-30T12:32:12;-15.83;52.00
72202;SHT30;60105;54.956;73.412;2022-11-30T12:40:07;-15.58;50.86
72202;SHT30;60105;54.956;73.412;2022-11-30T12:51:08;-15.84;51.15
72202;SHT30;60105;54.956;73.412;2022-11-30T12:53:55;-15.76;51.11
72202;SHT30;60105;54.956;73.412;2022-11-30T12:56:45;-15.69;51.10
72202;SHT30;60105;54.956;73.412;2022-11-30T13:04:50;-16.04;51.52
72202;SHT30;60105;54.956;73.412;2022-11-30T13:07:24;-16.00;53.26
72202;SHT30;60105;54.956;73.412;2022-11-30T13:13:05;-16.26;51.91
72202;SHT30;60105;54.956;73.412;2022-11-30T13:15:38;-16.18;54.06
72202;SHT30;60105;54.956;73.412;2022-11-30T13:18:05;-16.25;52.81
72202;SHT30;60105;54.956;73.412;2022-11-30T13:20:49;-16.43;53.59
72202;SHT30;60105;54.956;73.412;2022-11-30T13:23:35;-16.38;52.71
72202;SHT30;60105;54.956;73.412;2022-11-30T13:26:18;-16.38;52.92
72202;SHT30;60105;54.956;73.412;2022-11-30T13:31:43;-16.28;52.47
72202;SHT30;60105;54.956;73.412;2022-11-30T13:34:25;-16.31;52.70
72202;SHT30;60105;54.956;73.412;2022-11-30T13:37:16;-16.14;52.35
72202;SHT30;60105;54.956;73.412;2022-11-30T13:39:47;-16.04;52.90
72202;SHT30;60105;54.956;73.412;2022-11-30T13:42:32;-16.07;51.61
72202;SHT30;60105;54.956;73.412;2022-11-30T13:45:17;-16.04;52.29
72202;SHT30;60105;54.956;73.412;2022-11-30T13:47:52;-16.04;52.45
72202;SHT30;60105;54.956;73.412;2022-11-30T13:50:37;-16.04;52.15
72202;SHT30;60105;54.956;73.412;2022-11-30T13:53:25;-15.89;53.35
72202;SHT30;60105;54.956;73.412;2022-11-30T13:55:56;-15.82;51.66
72202;SHT30;60105;54.956;73.412;2022-11-30T13:58:24;-15.97;51.65
72202;SHT30;60105;54.956;73.412;2022-11-30T14:03:25;-15.97;52.18
72202;SHT30;60105;54.956;73.412;2022-11-30T14:09:00;-15.94;52.03
72202;SHT30;60105;54.956;73.412;2022-11-30T14:17:23;-15.79;52.01
72202;SHT30;60105;54.956;73.412;2022-11-30T14:20:07;-16.08;52.74
72202;SHT30;60105;54.956;73.412;2022-11-30T14:22:39;-16.31;53.36
72202;SHT30;60105;54.956;73.412;2022-11-30T14:25:12;-16.22;53.28
72202;SHT30;60105;54.956;73.412;2022-11-30T14:27:39;-16.04;52.97
72202;SHT30;60105;54.956;73.412;2022-11-30T14:30:18;-16.43;52.75
72202;SHT30;60105;54.956;73.412;2022-11-30T14:32:51;-16.46;53.72
72202;SHT30;60105;54.956;73.412;2022-11-30T14:35:20;-16.82;53.73
72202;SHT30;60105;54.956;73.412;2022-11-30T14:37:57;-16.90;54.74
72202;SHT30;60105;54.956;73.412;2022-11-30T14:40:33;-17.07;54.98
72202;SHT30;60105;54.956;73.412;2022-11-30T14:43:01;-16.94;55.64
72202;SHT30;60105;54.956;73.412;2022-11-30T14:45:33;-16.69;54.72
72202;SHT30;60105;54.956;73.412;2022-11-30T14:48:05;-16.49;54.51
72202;SHT30;60105;54.956;73.412;2022-11-30T14:50:42;-16.45;54.04
72202;SHT30;60105;54.956;73.412;2022-11-30T15:01:43;-16.70;53.82
72202;SHT30;60105;54.956;73.412;2022-11-30T15:04:16;-16.48;53.60
72202;SHT30;60105;54.956;73.412;2022-11-30T15:06:43;-16.59;53.19
72202;SHT30;60105;54.956;73.412;2022-11-30T15:09:23;-16.62;53.79
72202;SHT30;60105;54.956;73.412;2022-11-30T15:12:00;-16.53;53.26
72202;SHT30;60105;54.956;73.412;2022-11-30T15:14:36;-16.53;52.56
72202;SHT30;60105;54.956;73.412;2022-11-30T15:17:12;-16.48;52.20
72202;SHT30;60105;54.956;73.412;2022-11-30T15:19:46;-16.35;52.27
72202;SHT30;60105;54.956;73.412;2022-11-30T15:22:22;-16.56;52.40
72202;SHT30;60105;54.956;73.412;2022-11-30T15:24:49;-16.51;52.23
72202;SHT30;60105;54.956;73.412;2022-11-30T15:27:22;-16.69;52.14
72202;SHT30;60105;54.956;73.412;2022-11-30T15:30:11;-16.87;53.20
72202;SHT30;60105;54.956;73.412;2022-11-30T15:32:38;-16.89;53.79
72202;SHT30;60105;54.956;73.412;2022-11-30T15:35:04;-17.04;53.77
72202;SHT30;60105;54.956;73.412;2022-11-30T15:37:33;-16.96;54.44
72202;SHT30;60105;54.956;73.412;2022-11-30T15:40:03;-17.04;53.55
72202;SHT30;60105;54.956;73.412;2022-11-30T15:42:48;-16.89;54.63
72202;SHT30;60105;54.956;73.412;2022-11-30T15:45:22;-16.87;53.97
72202;SHT30;60105;54.956;73.412;2022-11-30T15:47:54;-17.01;53.84
72202;SHT30;60105;54.956;73.412;2022-11-30T15:50:31;-16.87;54.55
72202;SHT30;60105;54.956;73.412;2022-11-30T15:53:03;-16.89;54.29
72202;SHT30;60105;54.956;73.412;2022-11-30T16:01:11;-16.92;52.72
72202;SHT30;60105;54.956;73.412;2022-11-30T16:03:58;-16.92;53.77
72202;SHT30;60105;54.956;73.412;2022-11-30T16:06:43;-17.03;53.38
72202;SHT30;60105;54.956;73.412;2022-11-30T16:09:27;-16.93;53.73
72202;SHT30;60105;54.956;73.412;2022-11-30T16:11:58;-16.76;53.55
72202;SHT30;60105;54.956;73.412;2022-11-30T16:14:31;-16.73;53.95
72202;SHT30;60105;54.956;73.412;2022-11-30T16:17:02;-16.83;53.25
72202;SHT30;60105;54.956;73.412;2022-11-30T16:19:38;-17.01;54.81
72202;SHT30;60105;54.956;73.412;2022-11-30T16:22:15;-16.93;54.61
72202;SHT30;60105;54.956;73.412;2022-11-30T16:24:41;-17.00;54.13
72202;SHT30;60105;54.956;73.412;2022-11-30T16:27:25;-16.92;54.59
72202;SHT30;60105;54.956;73.412;2022-11-30T16:29:51;-16.73;55.54
72202;SHT30;60105;54.956;73.412;2022-11-30T16:32:28;-16.77;54.03
72202;SHT30;60105;54.956;73.412;2022-11-30T16:34:54;-16.60;53.66
72202;SHT30;60105;54.956;73.412;2022-11-30T16:37:31;-16.67;54.02
72202;SHT30;60105;54.956;73.412;2022-11-30T16:39:57;-17.06;54.26
72202;SHT30;60105;54.956;73.412;2022-11-30T16:42:34;-17.11;55.07
72202;SHT30;60105;54.956;73.412;2022-11-30T16:45:00;-17.38;55.23
72202;SHT30;60105;54.956;73.412;2022-11-30T16:47:26;-17.36;55.99
72202;SHT30;60105;54.956;73.412;2022-11-30T16:49:53;-17.21;56.43
72202;SHT30;60105;54.956;73.412;2022-11-30T16:52:19;-17.36;55.76
72202;SHT30;60105;54.956;73.412;2022-11-30T16:54:45;-17.36;56.67
72202;SHT30;60105;54.956;73.412;2022-11-30T16:57:12;-17.49;57.35
72202;SHT30;60105;54.956;73.412;2022-11-30T16:59:38;-17.14;57.41
72202;SHT30;60105;54.956;73.412;2022-11-30T17:02:14;-17.04;56.80
72202;SHT30;60105;54.956;73.412;2022-11-30T17:04:43;-17.06;56.54
72202;SHT30;60105;54.956;73.412;2022-11-30T17:07:09;-17.03;57.11
72202;SHT30;60105;54.956;73.412;2022-11-30T17:09:35;-16.99;56.53
72202;SHT30;60105;54.956;73.412;2022-11-30T17:12:02;-16.89;56.57
72202;SHT30;60105;54.956;73.412;2022-11-30T17:14:28;-16.90;55.92
72202;SHT30;60105;54.956;73.412;2022-11-30T17:16:59;-16.99;55.31